Saint Paul, MN (55101)

1:43 PM CDT on September 28, 2016 (GMT -0500)
Mounds Park, East Metro | | Change Station

Elev 850 ft 44.95 °N, 93.06 °W | Updated 25 seconds ago

Overcast
Overcast
61.2 °F
Feels Like 61.2 °F
N
0.4
Wind Variable Wind from ESE
Gusts 2.5 mph

Today
High -- | Low -- °F
--% Chance of Precip.
Yesterday
High -- | Low -- °F
Precip. -- in
Pressure 30.19 in
Visibility 10.0 miles
Clouds Scattered Clouds 2700 ft
Overcast 3600 ft
Dew Point 51 °F
Humidity 69%
Rainfall 0.00 in
Snow Depth Not available.
7:07 AM 6:57 PM
Waning Crescent, 5% visible
METAR KSTP 281753Z 01010G16KT 10SM SCT027 OVC036 15/09 A3019 RMK AO2 SLP223 T01500094 10156 20100 53020
Pressure 30.19 in
Visibility 10.0 miles
Clouds Scattered Clouds 2700 ft
Overcast 3600 ft
Dew Point 51 °F
Humidity 69%
Rainfall 0.00 in
Snow Depth Not available.
7:07 AM 6:57 PM
Waning Crescent, 5% visible
METAR KSTP 281753Z 01010G16KT 10SM SCT027 OVC036 15/09 A3019 RMK AO2 SLP223 T01500094 10156 20100 53020

10-Day Weather Forecast

Almanac

Astronomy

Sep. 28, 2016 Rise Set
Actual Time
Civil Twilight
Nautical Twilight
Astronomical Twilight
Moon
Length of Visible Light
Length of Day
Tomorrow will be .
, % of the Moon is Illuminated

Today's Extremes

State Highs State Lows

Community

WunderPhotos

Upload Photos

1,942,297 photos uploaded!

WunderBlog® & News

Nearby

Air Quality

  Air Quality AQ Index Pollutant
Not available.

Snow Depth

Station Depth Elevation

Earthquake Activity

City Distance Mag. Time & Date
Minimum magnitude displayed is 2.5.

Coastal Water Temperatures

Place Temperature

Stations

Nearby Weather Stations

Station Location Temp. Windchill Dew Point Humidity Wind Precip. Elev Updated Type
                   

Watches & Warnings

There are currently no watches in effect.